Weather at City of Colorado Springs Municipal Airport

Public forecast

Using degrees Fahrenheit for public forecast. Weather courtesy of forecast.io.

Current aviation weather report (METAR) for City of Colorado Springs Municipal Airport

Retrieved 2021/03/07 12:54 UTC (1 hour ago):

KCOS 071254Z 34011KT 10SM BKN250 08/M11 A3005 RMK AO2 SLP144 T00781111

Aviation forecast (TAF) for City of Colorado Springs Municipal Airport

Retrieved 2021/03/07 12:22 UTC (2 hours ago):

TAF KCOS 071120Z 0712/0812 33007KT P6SM BKN250 FM071800 17010KT P6SM FEW250 FM080600 09006KT P6SM FEW150 SCT250 FM081000 03006KT P6SM FEW120 BKN200